Time;durP1;ratioP1;P1;durP2;ratioP2;P2;SDS_P1;SDS_P2;PMS_P1;PMS_P2;Temp;Humidity;BMP_temperature;BMP_pressure;BME280_temperature;BME280_humidity;BME280_pressure;Samples;Min_cycle;Max_cycle;Signal;HPM_P1;HPM_P2
2021/06/18 00:00:14;;;;;;;18.40;9.75;;;16.70;99.90;;;;;;5113448;28;20618;-83
2021/06/18 00:02:40;;;;;;;21.63;10.05;;;16.50;99.90;;;;;;5114225;28;20253;-83
2021/06/18 00:05:08;;;;;;;16.50;9.35;;;16.70;99.90;;;;;;5114489;28;20257;-83
2021/06/18 00:07:34;;;;;;;17.08;10.02;;;16.80;99.90;;;;;;5112726;28;20181;-83
2021/06/18 00:10:00;;;;;;;17.85;9.65;;;;;;;;;;5113087;28;20227;-82
2021/06/18 00:12:26;;;;;;;13.57;8.82;;;16.60;99.90;;;;;;5115651;28;20222;-84
2021/06/18 00:14:52;;;;;;;14.15;8.00;;;;;;;;;;5117277;28;20219;-83
2021/06/18 00:17:18;;;;;;;17.58;9.02;;;16.20;99.90;;;;;;5113578;28;20177;-83
2021/06/18 00:19:44;;;;;;;18.10;10.68;;;;;;;;;;5127102;28;20202;-82
2021/06/18 00:22:09;;;;;;;19.00;9.32;;;16.20;99.90;;;;;;5126973;28;20629;-83
2021/06/18 00:24:35;;;;;;;17.55;9.38;;;;;;;;;;5114135;28;20177;-83
2021/06/18 00:27:01;;;;;;;16.30;9.80;;;;;;;;;;5114583;28;20573;-83
2021/06/18 00:29:27;;;;;;;16.27;9.80;;;;;;;;;;5114069;28;20201;-84
2021/06/18 00:31:53;;;;;;;22.92;10.43;;;16.30;99.90;;;;;;5114246;28;20539;-83
2021/06/18 00:34:19;;;;;;;21.58;9.27;;;;;;;;;;5114025;28;20178;-83
2021/06/18 00:36:45;;;;;;;18.50;9.38;;;16.10;99.90;;;;;;5112496;28;20170;-83
2021/06/18 00:39:11;;;;;;;15.75;9.25;;;;;;;;;;5112868;28;20230;-83
2021/06/18 00:41:36;;;;;;;14.63;8.52;;;16.10;99.90;;;;;;5112680;28;20199;-83
2021/06/18 00:44:02;;;;;;;17.77;9.00;;;;;;;;;;5095692;28;20576;-83
2021/06/18 00:46:28;;;;;;;14.90;9.15;;;16.20;99.90;;;;;;5113885;28;20176;-83
2021/06/18 00:48:54;;;;;;;14.18;8.80;;;16.20;99.90;;;;;;5112035;28;20209;-83
2021/06/18 00:51:20;;;;;;;15.48;9.38;;;16.30;99.90;;;;;;5113703;28;20174;-83
2021/06/18 00:53:46;;;;;;;15.45;9.35;;;15.90;99.90;;;;;;5112415;28;20189;-83
2021/06/18 00:56:12;;;;;;;17.38;8.70;;;16.40;99.90;;;;;;5095681;28;20174;-83
2021/06/18 00:58:38;;;;;;;21.02;8.90;;;;;;;;;;5113251;28;20306;-83
2021/06/18 01:01:04;;;;;;;16.77;9.02;;;16.10;99.90;;;;;;5112359;28;20177;-83
2021/06/18 01:03:30;;;;;;;12.45;7.35;;;;;;;;;;5113779;28;20509;-83
2021/06/18 01:05:56;;;;;;;13.75;8.63;;;16.40;99.90;;;;;;5113352;28;20185;-83
2021/06/18 01:08:28;;;;;;;13.38;8.23;;;16.00;99.90;;;;;;5113326;28;20662;-83
2021/06/18 01:11:31;;;;;;;17.40;8.07;;;15.90;99.90;;;;;;5113687;28;20621;-83
2021/06/18 01:14:15;;;;;;;15.82;8.35;;;15.70;99.90;;;;;;5112821;28;20221;-83
2021/06/18 01:17:14;;;;;;;14.77;7.90;;;16.10;99.90;;;;;;5113364;28;20162;-83
2021/06/18 01:19:54;;;;;;;10.88;6.95;;;16.20;99.90;;;;;;5095437;28;20200;-83
2021/06/18 01:22:25;;;;;;;16.17;8.70;;;15.90;99.90;;;;;;5113988;28;20645;-83
2021/06/18 01:24:57;;;;;;;18.88;7.90;;;15.40;99.90;;;;;;5095277;28;20219;-83
2021/06/18 01:27:32;;;;;;;18.60;8.73;;;15.90;99.90;;;;;;5117248;28;20158;-83
2021/06/18 01:30:04;;;;;;;12.23;7.95;;;15.80;99.90;;;;;;5115666;28;20220;-83
2021/06/18 01:32:51;;;;;;;18.48;8.07;;;16.30;99.90;;;;;;5115932;28;20537;-83
2021/06/18 01:35:19;;;;;;;17.50;8.48;;;15.60;99.90;;;;;;5117286;28;20599;-83
2021/06/18 01:37:56;;;;;;;12.52;7.53;;;15.90;99.90;;;;;;5116837;28;20173;-83
2021/06/18 01:40:26;;;;;;;17.80;8.00;;;16.10;99.90;;;;;;5116699;28;20539;-83
2021/06/18 01:42:52;;;;;;;13.98;7.72;;;16.10;99.90;;;;;;5116386;28;20761;-83
2021/06/18 01:45:19;;;;;;;16.90;8.15;;;15.40;99.90;;;;;;5115613;28;20202;-83
2021/06/18 01:47:47;;;;;;;12.63;7.68;;;15.90;99.90;;;;;;5116462;28;20201;-84
2021/06/18 01:50:16;;;;;;;12.98;7.68;;;15.70;99.90;;;;;;5115581;28;20186;-83
2021/06/18 01:52:46;;;;;;;13.60;7.15;;;15.70;99.90;;;;;;5116478;28;20227;-83
2021/06/18 01:55:13;;;;;;;16.38;7.90;;;15.40;99.90;;;;;;5116547;28;20170;-83
2021/06/18 01:57:40;;;;;;;16.27;7.75;;;15.50;99.90;;;;;;5115111;28;20599;-84
2021/06/18 02:00:07;;;;;;;11.50;7.75;;;15.90;99.90;;;;;;5116497;28;20619;-83
2021/06/18 02:02:35;;;;;;;15.10;8.38;;;15.10;99.90;;;;;;5116659;28;20256;-83
2021/06/18 02:05:06;;;;;;;13.00;7.80;;;15.60;99.90;;;;;;5115033;28;20637;-83
2021/06/18 02:07:34;;;;;;;15.45;7.63;;;15.40;99.90;;;;;;5116387;28;20170;-83
2021/06/18 02:10:05;;;;;;;12.15;6.93;;;15.40;99.90;;;;;;5115045;28;20696;-83
2021/06/18 02:12:31;;;;;;;18.20;7.90;;;15.30;99.90;;;;;;5116386;28;20222;-82
2021/06/18 02:14:57;;;;;;;12.68;7.25;;;15.40;99.90;;;;;;5116021;28;20166;-82
2021/06/18 02:17:25;;;;;;;10.82;6.63;;;15.00;99.90;;;;;;5116250;28;20196;-82
2021/06/18 02:19:53;;;;;;;13.40;7.55;;;15.70;99.90;;;;;;5116032;28;20166;-83
2021/06/18 02:22:21;;;;;;;13.68;7.97;;;15.40;99.90;;;;;;5115953;28;20213;-84
2021/06/18 02:24:49;;;;;;;12.75;7.47;;;15.20;99.90;;;;;;5114731;28;20182;-84
2021/06/18 02:27:15;;;;;;;16.20;7.75;;;;;;;;;;5116199;28;20177;-84
2021/06/18 02:29:42;;;;;;;11.35;7.00;;;15.60;99.90;;;;;;5097866;28;20205;-81
2021/06/18 02:32:11;;;;;;;16.40;7.63;;;15.60;99.90;;;;;;5115939;28;20174;-82
2021/06/18 02:34:38;;;;;;;13.25;7.22;;;15.60;99.90;;;;;;5115883;28;20174;-82
2021/06/18 02:37:05;;;;;;;14.27;7.90;;;15.40;99.90;;;;;;5115011;28;20180;-82
2021/06/18 02:39:31;;;;;;;11.82;7.63;;;15.30;99.90;;;;;;5116345;28;20233;-82
2021/06/18 02:41:56;;;;;;;12.80;7.93;;;15.00;99.90;;;;;;5115386;28;20170;-83
2021/06/18 02:44:22;;;;;;;13.20;7.50;;;15.60;99.90;;;;;;5115735;28;20170;-83
2021/06/18 02:47:06;;;;;;;17.30;7.20;;;15.20;99.90;;;;;;5114377;28;20177;-83
2021/06/18 02:49:44;;;;;;;12.13;7.50;;;15.40;99.90;;;;;;5115774;28;20197;-82
2021/06/18 02:52:15;;;;;;;15.32;7.18;;;15.10;99.90;;;;;;5115444;28;20166;-82
2021/06/18 02:54:51;;;;;;;16.95;7.45;;;15.40;99.90;;;;;;5115491;28;20166;-82
2021/06/18 02:57:27;;;;;;;13.65;7.60;;;15.40;99.90;;;;;;5115727;28;20154;-82
2021/06/18 03:00:01;;;;;;;20.88;8.10;;;15.20;99.90;;;;;;5115184;28;20211;-83
2021/06/18 03:02:35;;;;;;;17.40;9.13;;;15.50;99.90;;;;;;5115546;28;20636;-83
2021/06/18 03:05:05;;;;;;;17.23;8.80;;;15.60;99.90;;;;;;5113950;28;20178;-82
2021/06/18 03:07:34;;;;;;;19.10;9.57;;;15.30;99.90;;;;;;5113860;28;20189;-84
2021/06/18 03:10:03;;;;;;;18.90;9.38;;;15.50;99.90;;;;;;5113596;28;20581;-84
2021/06/18 03:12:32;;;;;;;18.45;10.15;;;15.40;99.90;;;;;;5114639;28;20226;-84
2021/06/18 03:15:04;;;;;;;24.23;11.35;;;15.30;99.90;;;;;;5115057;28;20177;-84
2021/06/18 03:17:33;;;;;;;19.38;10.45;;;15.80;99.90;;;;;;5115397;28;20158;-84
2021/06/18 03:20:03;;;;;;;19.45;10.48;;;15.90;99.90;;;;;;5114912;28;20174;-84
2021/06/18 03:22:32;;;;;;;19.95;11.60;;;15.50;99.90;;;;;;5114837;28;20173;-83
2021/06/18 03:24:59;;;;;;;17.67;11.20;;;16.10;99.90;;;;;;5114572;28;20249;-84
2021/06/18 03:27:26;;;;;;;24.52;10.95;;;15.90;99.90;;;;;;5114835;28;20189;-83
2021/06/18 03:29:54;;;;;;;22.38;11.13;;;16.30;99.90;;;;;;5113259;28;20197;-84
2021/06/18 03:32:20;;;;;;;17.70;10.93;;;16.20;99.90;;;;;;5113684;28;20555;-84
2021/06/18 03:34:47;;;;;;;18.67;10.38;;;16.50;99.90;;;;;;5115298;28;20181;-83
2021/06/18 03:37:13;;;;;;;20.40;11.57;;;16.20;99.90;;;;;;5113249;28;20208;-84
2021/06/18 03:39:40;;;;;;;14.35;10.68;;;16.60;99.90;;;;;;5113529;28;20182;-84
2021/06/18 03:42:08;;;;;;;23.30;12.18;;;16.50;99.90;;;;;;5114236;28;20174;-83
2021/06/18 03:44:33;;;;;;;20.15;12.18;;;16.50;99.90;;;;;;5114476;28;20184;-84
2021/06/18 03:47:01;;;;;;;19.40;11.75;;;16.70;99.90;;;;;;5114013;28;20170;-81
2021/06/18 03:49:29;;;;;;;25.50;12.40;;;16.30;99.90;;;;;;5111643;28;20217;-84
2021/06/18 03:51:55;;;;;;;23.48;12.65;;;16.90;99.90;;;;;;5113910;28;20178;-85
2021/06/18 03:54:22;;;;;;;21.25;11.35;;;17.00;99.90;;;;;;5114266;28;20653;-85
2021/06/18 03:56:49;;;;;;;20.10;12.75;;;16.90;99.90;;;;;;5114337;28;20170;-85
2021/06/18 03:59:16;;;;;;;20.95;13.00;;;17.10;99.90;;;;;;5114016;28;20623;-83
2021/06/18 04:01:47;;;;;;;27.58;13.15;;;17.20;99.90;;;;;;5114189;28;20648;-83
2021/06/18 04:04:13;;;;;;;17.88;11.75;;;17.70;99.90;;;;;;5113817;28;20158;-83
2021/06/18 04:06:40;;;;;;;20.90;11.80;;;17.50;99.90;;;;;;5114037;28;20174;-83
2021/06/18 04:09:07;;;;;;;24.73;11.32;;;17.90;99.90;;;;;;5113790;28;20206;-83
2021/06/18 04:11:34;;;;;;;19.33;11.80;;;17.60;99.90;;;;;;5114063;28;20226;-83
2021/06/18 04:14:02;;;;;;;23.83;11.93;;;17.80;99.90;;;;;;5112217;28;20573;-82
2021/06/18 04:16:28;;;;;;;22.42;13.02;;;17.60;99.90;;;;;;5114113;28;20252;-83
2021/06/18 04:18:54;;;;;;;20.60;11.77;;;17.90;99.90;;;;;;5113864;28;20256;-83
2021/06/18 04:21:22;;;;;;;20.52;11.35;;;18.60;99.90;;;;;;5113988;28;20626;-84
2021/06/18 04:23:48;;;;;;;20.50;13.70;;;18.30;99.90;;;;;;5114132;28;20176;-84
2021/06/18 04:26:15;;;;;;;19.83;12.27;;;18.60;99.90;;;;;;5113818;28;20243;-84
2021/06/18 04:28:42;;;;;;;19.00;11.57;;;18.40;99.90;;;;;;5112784;28;20582;-84
2021/06/18 04:31:08;;;;;;;19.38;12.40;;;18.50;99.90;;;;;;5112541;28;20178;-84
2021/06/18 04:33:35;;;;;;;18.67;11.90;;;18.70;99.90;;;;;;5113538;28;20175;-84
2021/06/18 04:36:01;;;;;;;18.73;11.55;;;18.80;99.90;;;;;;5114051;28;20583;-84
2021/06/18 04:38:27;;;;;;;17.63;11.13;;;;;;;;;;5113624;28;20189;-84
2021/06/18 04:40:54;;;;;;;17.25;11.02;;;19.30;99.90;;;;;;5112119;28;20192;-85
2021/06/18 04:43:19;;;;;;;14.73;10.75;;;19.50;99.90;;;;;;5095456;28;20582;-85
2021/06/18 04:45:45;;;;;;;15.45;9.25;;;19.30;99.90;;;;;;5118538;28;20186;-84
2021/06/18 04:48:11;;;;;;;17.35;9.93;;;;;;;;;;5113445;28;20338;-84
2021/06/18 04:50:38;;;;;;;13.25;8.35;;;;;;;;;;5113885;28;20178;-84
2021/06/18 04:53:08;;;;;;;16.73;7.90;;;19.70;99.90;;;;;;5113633;28;20181;-85
2021/06/18 04:55:34;;;;;;;15.60;7.80;;;20.20;99.90;;;;;;5113757;28;20165;-84
2021/06/18 04:58:00;;;;;;;13.40;7.45;;;;;;;;;;5113254;28;20550;-85
2021/06/18 05:00:26;;;;;;;16.02;7.10;;;19.70;99.90;;;;;;5113966;28;20178;-85
2021/06/18 05:02:52;;;;;;;11.00;7.70;;;20.00;99.90;;;;;;5116149;28;20223;-85
2021/06/18 05:05:18;;;;;;;10.63;6.95;;;20.00;99.90;;;;;;5116582;28;20580;-84
2021/06/18 05:07:44;;;;;;;8.88;7.05;;;;;;;;;;5116737;28;20690;-84
2021/06/18 05:10:10;;;;;;;8.73;6.90;;;20.40;99.90;;;;;;5116490;27;20190;-83
2021/06/18 05:12:36;;;;;;;11.60;6.43;;;20.50;99.90;;;;;;5116306;28;20273;-84
2021/06/18 05:15:04;;;;;;;11.73;7.30;;;20.60;99.90;;;;;;5115380;28;20178;-84
2021/06/18 05:17:30;;;;;;;8.07;6.20;;;20.90;99.90;;;;;;5116685;28;20169;-85
2021/06/18 05:19:56;;;;;;;10.50;6.72;;;;;;;;;;5116977;28;20178;-85
2021/06/18 05:22:21;;;;;;;10.98;6.75;;;20.80;99.90;;;;;;5115265;28;20232;-85
2021/06/18 05:24:48;;;;;;;8.90;6.38;;;;;;;;;;5115433;28;20581;-85
2021/06/18 05:27:13;;;;;;;9.32;6.28;;;20.70;99.90;;;;;;5114760;28;20182;-86
2021/06/18 05:29:39;;;;;;;8.70;6.75;;;21.50;99.90;;;;;;5116318;28;20194;-85
2021/06/18 05:32:05;;;;;;;13.85;7.03;;;21.70;99.90;;;;;;5114676;28;20266;-86
2021/06/18 05:34:31;;;;;;;8.45;7.13;;;21.80;99.90;;;;;;5115887;28;20186;-85
2021/06/18 05:36:57;;;;;;;10.13;7.47;;;;;;;;;;5094788;28;20186;-85
2021/06/18 05:39:23;;;;;;;15.30;6.97;;;;;;;;;;5095739;28;20208;-86
2021/06/18 05:41:49;;;;;;;9.13;6.88;;;21.80;99.90;;;;;;5095016;28;20186;-85
2021/06/18 05:44:15;;;;;;;12.25;7.32;;;;;;;;;;5096467;28;20635;-86
2021/06/18 05:46:40;;;;;;;10.30;7.50;;;22.20;99.90;;;;;;5094596;28;20228;-84
2021/06/18 05:49:06;;;;;;;9.93;7.35;;;;;;;;;;5094446;28;20206;-85
2021/06/18 05:51:32;;;;;;;10.25;6.68;;;21.70;99.90;;;;;;5105492;28;20194;-85
2021/06/18 05:53:58;;;;;;;15.77;7.65;;;22.30;99.90;;;;;;5115566;28;20200;-85
2021/06/18 05:56:24;;;;;;;9.80;7.18;;;21.80;99.90;;;;;;5116055;28;20610;-84
2021/06/18 05:58:50;;;;;;;11.88;7.60;;;;;;;;;;5115419;28;20182;-84
2021/06/18 06:01:16;;;;;;;9.98;7.25;;;;;;;;;;5098673;28;20276;-85
2021/06/18 06:03:42;;;;;;;23.23;7.80;;;;;;;;;;5124133;28;20193;-85
2021/06/18 06:06:11;;;;;;;11.15;7.30;;;22.90;99.90;;;;;;5137141;28;20181;-85
2021/06/18 06:08:37;;;;;;;11.80;6.70;;;22.30;99.90;;;;;;5134619;28;20231;-85
2021/06/18 06:11:04;;;;;;;12.30;7.60;;;22.70;99.90;;;;;;5132215;28;20189;-84
2021/06/18 06:13:30;;;;;;;13.88;7.20;;;;;;;;;;5130060;28;20233;-86
2021/06/18 06:15:56;;;;;;;13.00;6.50;;;;;;;;;;5114914;27;20189;-87
2021/06/18 06:18:22;;;;;;;8.65;6.68;;;;;;;;;;5113609;28;20186;-86
2021/06/18 06:20:48;;;;;;;12.40;6.40;;;22.90;99.90;;;;;;5114014;28;20174;-86
2021/06/18 06:23:15;;;;;;;7.55;6.35;;;23.30;99.90;;;;;;5114614;28;20319;-85
2021/06/18 06:25:42;;;;;;;11.05;6.47;;;;;;;;;;5115066;28;20175;-86
2021/06/18 06:28:08;;;;;;;12.48;6.20;;;23.40;99.90;;;;;;5113827;28;20205;-86
2021/06/18 06:30:35;;;;;;;10.48;6.05;;;23.50;99.90;;;;;;5114626;28;20181;-86
2021/06/18 06:33:01;;;;;;;8.57;6.07;;;;;;;;;;5113645;28;20174;-85
2021/06/18 06:35:27;;;;;;;9.48;5.65;;;24.10;99.90;;;;;;5114601;28;20250;-85
2021/06/18 06:37:53;;;;;;;11.68;6.32;;;23.90;99.90;;;;;;5113875;28;20264;-84
2021/06/18 06:40:21;;;;;;;9.57;6.68;;;;;;;;;;5114954;28;20701;-85
2021/06/18 06:42:47;;;;;;;8.48;6.25;;;;;;;;;;5115221;27;20184;-84
2021/06/18 06:45:13;;;;;;;15.80;6.28;;;23.90;99.90;;;;;;5112574;28;20182;-86
2021/06/18 06:47:40;;;;;;;8.27;5.97;;;;;;;;;;5113314;28;20170;-83
2021/06/18 06:50:08;;;;;;;8.73;5.80;;;24.20;99.90;;;;;;5114518;28;20277;-86
2021/06/18 06:52:34;;;;;;;13.52;4.97;;;24.60;99.90;;;;;;5113165;28;20182;-85
2021/06/18 06:55:00;;;;;;;8.45;5.13;;;;;;;;;;5112252;28;20525;-85
2021/06/18 06:57:26;;;;;;;8.13;5.20;;;;;;;;;;5112429;28;20177;-85
2021/06/18 06:59:52;;;;;;;7.45;4.97;;;;;;;;;;5112870;28;20201;-85
2021/06/18 07:02:18;;;;;;;7.07;5.35;;;;;;;;;;5113388;28;20634;-85
2021/06/18 07:04:45;;;;;;;7.72;5.25;;;24.80;99.90;;;;;;5112153;28;20185;-85
2021/06/18 07:07:11;;;;;;;13.68;4.65;;;;;;;;;;5113475;28;20174;-84
2021/06/18 07:09:38;;;;;;;15.02;8.30;;;;;;;;;;5114803;28;20704;-84
2021/06/18 07:12:06;;;;;;;6.72;5.03;;;25.60;99.90;;;;;;5113513;28;20182;-85
2021/06/18 07:14:32;;;;;;;10.95;5.63;;;;;;;;;;5114852;28;20280;-84
2021/06/18 07:16:58;;;;;;;9.63;5.40;;;;;;;;;;5113831;28;20178;-84
2021/06/18 07:19:24;;;;;;;9.75;5.15;;;;;;;;;;5115004;28;20178;-84
2021/06/18 07:21:50;;;;;;;14.40;6.13;;;;;;;;;;5114282;28;20657;-84
2021/06/18 07:24:16;;;;;;;7.82;5.07;;;;;;;;;;5113813;28;20170;-84
2021/06/18 07:26:43;;;;;;;9.15;5.65;;;;;;;;;;5113249;28;20634;-84
2021/06/18 07:29:08;;;;;;;10.05;5.18;;;;;;;;;;5115225;28;20205;-85
2021/06/18 07:31:35;;;;;;;9.55;5.55;;;;;;;;;;5113222;28;20192;-85
2021/06/18 07:34:03;;;;;;;8.98;5.22;;;;;;;;;;5114701;28;20162;-85
2021/06/18 07:36:29;;;;;;;6.90;4.82;;;25.80;99.90;;;;;;5113293;28;20178;-86
2021/06/18 07:38:55;;;;;;;6.30;4.68;;;;;;;;;;5113400;28;20200;-85
2021/06/18 07:41:21;;;;;;;7.55;4.68;;;;;;;;;;5114786;27;20260;-86
2021/06/18 07:43:47;;;;;;;6.45;5.05;;;25.70;99.90;;;;;;5112865;28;20198;-86
2021/06/18 07:46:13;;;;;;;7.13;4.97;;;25.60;99.90;;;;;;5114362;28;20217;-85
2021/06/18 07:48:40;;;;;;;6.47;4.95;;;26.20;99.90;;;;;;5114132;28;20202;-85
2021/06/18 07:51:06;;;;;;;7.75;4.72;;;;;;;;;;5114020;28;20538;-86
2021/06/18 07:53:32;;;;;;;7.88;4.40;;;26.10;99.90;;;;;;5114057;28;20170;-86
2021/06/18 07:55:58;;;;;;;5.85;4.70;;;;;;;;;;5113225;28;20170;-86
2021/06/18 07:58:24;;;;;;;10.93;4.05;;;;;;;;;;5112955;28;20227;-84
2021/06/18 08:00:50;;;;;;;7.43;4.00;;;;;;;;;;5112613;28;20280;-84
2021/06/18 08:03:16;;;;;;;10.98;4.63;;;;;;;;;;5095980;28;20320;-84
2021/06/18 08:05:42;;;;;;;11.43;4.22;;;;;;;;;;5112654;28;20627;-84
2021/06/18 08:08:08;;;;;;;6.90;4.10;;;;;;;;;;5112888;28;20205;-85
2021/06/18 08:10:34;;;;;;;7.72;4.30;;;;;;;;;;5117443;28;20264;-85
2021/06/18 08:13:00;;;;;;;8.73;4.20;;;;;;;;;;5119120;28;20678;-84
2021/06/18 08:15:26;;;;;;;4.15;3.75;;;;;;;;;;5124048;28;20189;-84
2021/06/18 08:17:53;;;;;;;7.45;3.90;;;;;;;;;;5134073;28;20197;-85
2021/06/18 08:20:22;;;;;;;6.22;3.40;;;;;;;;;;5121645;28;20178;-85
2021/06/18 08:22:48;;;;;;;6.65;3.50;;;27.00;99.90;;;;;;5096916;28;20178;-85
2021/06/18 08:25:14;;;;;;;5.43;3.50;;;;;;;;;;5114342;28;20257;-85
2021/06/18 08:27:40;;;;;;;5.30;3.53;;;;;;;;;;5113941;28;20259;-85
2021/06/18 08:30:08;;;;;;;7.15;3.30;;;27.40;99.90;;;;;;5114160;28;20189;-85
2021/06/18 08:32:33;;;;;;;19.88;3.80;;;27.50;99.90;;;;;;5113612;28;20168;-85
2021/06/18 08:34:59;;;;;;;6.95;3.42;;;;;;;;;;5115868;28;20611;-85
2021/06/18 08:37:25;;;;;;;5.43;3.80;;;;;;;;;;5120747;27;20188;-84
2021/06/18 08:39:51;;;;;;;5.30;3.53;;;;;;;;;;5120412;27;20181;-86
2021/06/18 08:42:18;;;;;;;4.32;3.50;;;;;;;;;;5119534;28;20261;-85
2021/06/18 08:44:45;;;;;;;4.75;3.38;;;;;;;;;;5119016;28;20178;-86
2021/06/18 08:47:12;;;;;;;5.20;4.10;;;;;;;;;;5119332;28;20181;-85
2021/06/18 08:49:38;;;;;;;6.40;3.72;;;28.30;99.90;;;;;;5124119;27;20198;-86
2021/06/18 08:52:04;;;;;;;6.03;4.38;;;28.30;99.90;;;;;;5119202;28;20239;-85
2021/06/18 08:54:42;;;;;;;7.82;3.65;;;;;;;;;;5120206;28;20261;-86
2021/06/18 08:57:19;;;;;;;9.60;4.22;;;28.00;99.90;;;;;;5120626;27;20158;-86
2021/06/18 08:59:46;;;;;;;6.00;3.67;;;28.10;99.90;;;;;;5120272;28;20181;-85
2021/06/18 09:02:13;;;;;;;4.38;3.60;;;28.10;99.90;;;;;;5119541;28;20211;-85
2021/06/18 09:05:09;;;;;;;4.43;3.88;;;28.20;99.90;;;;;;5120056;28;20178;-86
2021/06/18 09:07:48;;;;;;;5.93;3.78;;;28.60;99.90;;;;;;5120447;27;20161;-85
2021/06/18 09:10:34;;;;;;;6.57;4.05;;;28.50;99.90;;;;;;5119178;28;20189;-86
2021/06/18 09:13:31;;;;;;;5.07;3.83;;;28.30;99.90;;;;;;5118657;28;20294;-85
2021/06/18 09:15:58;;;;;;;5.38;3.83;;;28.20;99.90;;;;;;5118647;28;20231;-86
2021/06/18 09:18:40;;;;;;;9.95;3.78;;;27.70;99.90;;;;;;5120242;28;20182;-85
2021/06/18 09:21:14;;;;;;;5.18;3.78;;;28.60;99.90;;;;;;5119019;28;20170;-85
2021/06/18 09:23:45;;;;;;;5.45;3.30;;;28.00;99.90;;;;;;5119049;28;20188;-86
2021/06/18 09:26:17;;;;;;;5.30;3.33;;;29.10;99.90;;;;;;5119232;28;20202;-85
2021/06/18 09:29:18;;;;;;;5.65;3.42;;;29.00;99.90;;;;;;5118600;28;20221;-86
2021/06/18 09:32:11;;;;;;;3.67;3.03;;;28.40;99.90;;;;;;5086818;27;20253;-85
2021/06/18 09:35:10;;;;;;;4.93;3.40;;;28.40;99.90;;;;;;5120975;28;20154;-85
2021/06/18 09:37:39;;;;;;;5.20;3.70;;;28.80;97.90;;;;;;5118541;28;20280;-86
2021/06/18 09:40:06;;;;;;;4.05;3.30;;;28.60;98.20;;;;;;5120316;28;20174;-84
2021/06/18 09:42:53;;;;;;;7.07;3.13;;;29.10;92.50;;;;;;5118971;28;20178;-85
2021/06/18 09:45:39;;;;;;;7.85;3.50;;;29.30;92.20;;;;;;5119937;28;20657;-84
2021/06/18 09:48:14;;;;;;;3.38;2.88;;;29.40;91.90;;;;;;5115982;28;20209;-84
2021/06/18 09:50:47;;;;;;;3.90;3.00;;;29.60;90.70;;;;;;5116738;28;20173;-85
2021/06/18 09:53:25;;;;;;;8.18;2.95;;;29.20;92.30;;;;;;5099785;28;20182;-85
2021/06/18 09:56:05;;;;;;;4.13;2.85;;;29.30;89.80;;;;;;5116649;28;20169;-84
2021/06/18 09:58:39;;;;;;;5.43;3.53;;;29.10;93.80;;;;;;5116924;28;20166;-85
2021/06/18 10:01:27;;;;;;;4.03;3.08;;;29.60;95.80;;;;;;5115228;28;20584;-84
2021/06/18 10:04:07;;;;;;;3.00;2.70;;;30.00;93.90;;;;;;5116657;28;20169;-85
2021/06/18 10:06:35;;;;;;;5.95;3.47;;;29.90;85.90;;;;;;5115746;28;20692;-82
2021/06/18 10:09:01;;;;;;;7.65;3.35;;;;;;;;;;5116208;28;20206;-84
2021/06/18 10:11:29;;;;;;;9.80;3.17;;;30.10;83.50;;;;;;5115345;28;20185;-84
2021/06/18 10:13:56;;;;;;;9.52;4.10;;;30.20;86.60;;;;;;5116209;28;20225;-84
2021/06/18 10:16:23;;;;;;;7.45;3.10;;;;;;;;;;5098129;28;20211;-85
2021/06/18 10:18:50;;;;;;;4.88;3.17;;;;;;;;;;5115568;28;20578;-85
2021/06/18 10:21:21;;;;;;;4.32;3.13;;;29.60;83.00;;;;;;5116079;28;20174;-85
2021/06/18 10:23:56;;;;;;;8.07;2.83;;;28.90;90.10;;;;;;5115626;28;20570;-85
2021/06/18 10:26:24;;;;;;;5.65;3.75;;;29.00;83.80;;;;;;5114946;28;20170;-85
2021/06/18 10:28:55;;;;;;;4.25;2.85;;;29.20;91.20;;;;;;5097188;28;20232;-86
2021/06/18 10:31:29;;;;;;;8.93;2.55;;;28.90;91.60;;;;;;5116017;28;20201;-85
2021/06/18 10:34:15;;;;;;;3.97;3.20;;;30.30;88.30;;;;;;5115473;28;20165;-86
2021/06/18 10:36:42;;;;;;;4.72;2.80;;;30.10;82.70;;;;;;5114636;28;20280;-86
2021/06/18 10:39:20;;;;;;;6.68;3.05;;;30.40;87.70;;;;;;5115321;28;20227;-85
2021/06/18 10:41:54;;;;;;;4.22;3.45;;;30.30;78.40;;;;;;5113923;28;20189;-86
2021/06/18 10:44:55;;;;;;;3.30;2.90;;;30.40;84.50;;;;;;5115711;28;20162;-86
2021/06/18 10:47:24;;;;;;;6.78;2.88;;;30.30;81.50;;;;;;5019224;28;20211;-84
2021/06/18 10:49:51;;;;;;;7.40;3.28;;;30.50;77.50;;;;;;5098766;28;20582;-85
2021/06/18 10:52:19;;;;;;;10.48;4.10;;;30.60;84.20;;;;;;5115487;28;20623;-85
2021/06/18 10:54:55;;;;;;;4.32;3.13;;;30.80;84.90;;;;;;5115536;28;20176;-84
2021/06/18 10:57:22;;;;;;;10.63;3.92;;;30.80;75.50;;;;;;5114768;28;20194;-84
2021/06/18 10:59:52;;;;;;;3.20;2.53;;;31.10;88.70;;;;;;5113816;28;20219;-86
2021/06/18 11:02:23;;;;;;;5.60;2.92;;;30.40;82.70;;;;;;5114182;28;20541;-84
2021/06/18 11:04:53;;;;;;;4.10;3.28;;;30.10;77.10;;;;;;5114568;28;20533;-86
2021/06/18 11:07:23;;;;;;;3.67;3.35;;;29.30;88.10;;;;;;5113937;28;20178;-84
2021/06/18 11:09:54;;;;;;;9.20;3.95;;;29.80;86.70;;;;;;5113376;28;20565;-85
2021/06/18 11:12:23;;;;;;;8.02;3.42;;;29.60;88.20;;;;;;5113624;28;20237;-84
2021/06/18 11:14:56;;;;;;;8.65;3.55;;;29.50;79.10;;;;;;5115257;28;20170;-84
2021/06/18 11:17:44;;;;;;;4.78;3.30;;;29.30;90.80;;;;;;5098051;28;20185;-85
2021/06/18 11:20:21;;;;;;;4.85;3.20;;;29.30;89.40;;;;;;5114788;28;20166;-84
2021/06/18 11:22:53;;;;;;;7.63;3.55;;;29.90;77.80;;;;;;5114553;28;20214;-84
2021/06/18 11:25:56;;;;;;;4.53;3.75;;;29.70;86.80;;;;;;5117355;28;20159;-85
2021/06/18 11:28:22;;;;;;;6.57;3.10;;;;;;;;;;5118833;28;20200;-85
2021/06/18 11:30:55;;;;;;;3.33;3.03;;;29.80;78.80;;;;;;5129591;28;20180;-84
2021/06/18 11:33:45;;;;;;;5.78;3.38;;;29.70;88.10;;;;;;5128709;28;20182;-84
2021/06/18 11:36:18;;;;;;;8.15;3.55;;;29.80;86.80;;;;;;5102895;28;20199;-84
2021/06/18 11:38:46;;;;;;;4.00;3.33;;;30.10;75.30;;;;;;5111935;28;20552;-85
2021/06/18 11:41:12;;;;;;;3.78;3.08;;;;;;;;;;5112178;28;20204;-86
2021/06/18 11:43:40;;;;;;;7.57;3.75;;;30.40;76.90;;;;;;5112139;28;20231;-85
2021/06/18 11:46:06;;;;;;;4.40;3.28;;;30.40;74.50;;;;;;5113710;28;20170;-86
2021/06/18 11:48:33;;;;;;;6.75;4.80;;;;;;;;;;5112625;28;20239;-84
2021/06/18 11:50:59;;;;;;;3.50;3.20;;;;;;;;;;5112406;28;20190;-85
2021/06/18 11:53:39;;;;;;;4.15;3.45;;;30.60;72.90;;;;;;5114854;28;20170;-85
2021/06/18 11:56:20;;;;;;;4.20;3.80;;;;;;;;;;5113064;28;20786;-83
2021/06/18 11:58:47;;;;;;;5.13;3.90;;;30.40;72.20;;;;;;5114310;27;20185;-84
2021/06/18 12:01:13;;;;;;;5.80;2.95;;;;;;;;;;5110747;28;20277;-83
2021/06/18 12:03:39;;;;;;;7.10;3.42;;;;;;;;;;5112987;28;20261;-83
2021/06/18 12:06:42;;;;;;;7.45;4.85;;;30.40;80.80;;;;;;5112138;28;20207;-84
2021/06/18 12:09:26;;;;;;;6.65;3.10;;;30.30;73.40;;;;;;5108965;28;20221;-84
2021/06/18 12:12:01;;;;;;;5.97;3.33;;;30.10;79.60;;;;;;5112378;28;20253;-86
2021/06/18 12:14:35;;;;;;;11.27;3.15;;;30.60;82.30;;;;;;5113609;28;20231;-83
2021/06/18 12:17:01;;;;;;;3.30;3.00;;;;;;;;;;5112363;28;20178;-84
2021/06/18 12:19:27;;;;;;;11.00;3.95;;;;;;;;;;5085962;28;20182;-84
2021/06/18 12:22:08;;;;;;;3.95;3.40;;;30.30;71.80;;;;;;5108945;28;20177;-84
2021/06/18 12:24:39;;;;;;;6.13;3.13;;;30.20;69.20;;;;;;5110361;28;20530;-83
2021/06/18 12:27:11;;;;;;;4.97;2.92;;;30.10;78.20;;;;;;5110235;28;20200;-84
2021/06/18 12:29:52;;;;;;;3.95;3.10;;;30.30;70.20;;;;;;5112477;28;20205;-84
2021/06/18 12:32:18;;;;;;;5.68;3.60;;;;;;;;;;5095954;28;20184;-82
2021/06/18 12:34:56;;;;;;;6.05;3.45;;;30.10;71.30;;;;;;5112336;28;20178;-85
2021/06/18 12:37:27;;;;;;;7.53;4.88;;;30.00;69.30;;;;;;5111244;28;20523;-83
2021/06/18 12:40:02;;;;;;;5.80;3.33;;;30.10;69.20;;;;;;5112884;28;20265;-84
2021/06/18 12:42:40;;;;;;;3.50;3.13;;;30.20;68.10;;;;;;5111745;28;20230;-83
2021/06/18 12:45:08;;;;;;;3.42;2.83;;;29.60;74.60;;;;;;5111318;28;20618;-83
2021/06/18 12:47:36;;;;;;;3.55;3.25;;;30.30;67.10;;;;;;5111435;28;20189;-84
2021/06/18 12:50:21;;;;;;;5.35;3.45;;;30.60;77.60;;;;;;5111054;28;20197;-83
2021/06/18 12:52:51;;;;;;;4.35;3.03;;;30.10;67.90;;;;;;5111281;28;20178;-83
2021/06/18 12:55:32;;;;;;;5.32;3.67;;;30.10;68.00;;;;;;5111579;28;20178;-84
2021/06/18 12:58:33;;;;;;;4.28;2.92;;;30.00;76.80;;;;;;5113014;28;20158;-83
2021/06/18 13:01:06;;;;;;;11.00;2.90;;;30.20;67.40;;;;;;5098432;28;20193;-82
2021/06/18 13:03:32;;;;;;;4.93;3.17;;;;;;;;;;5113094;28;20154;-84
2021/06/18 13:06:00;;;;;;;6.40;3.20;;;30.10;68.70;;;;;;5111383;28;20170;-84
2021/06/18 13:08:26;;;;;;;4.82;3.00;;;;;;;;;;5111336;28;20197;-85
2021/06/18 13:10:53;;;;;;;6.20;3.20;;;30.00;76.50;;;;;;5110236;28;20177;-83
2021/06/18 13:13:30;;;;;;;5.65;3.10;;;30.10;69.10;;;;;;5111143;28;20257;-83
2021/06/18 13:16:13;;;;;;;6.55;3.20;;;29.60;71.10;;;;;;5110377;28;20595;-83
2021/06/18 13:18:56;;;;;;;5.88;3.35;;;30.10;70.20;;;;;;5110282;28;20181;-84
2021/06/18 13:21:24;;;;;;;5.05;3.42;;;30.00;70.00;;;;;;5113942;28;20166;-84